Time;durP1;ratioP1;P1;durP2;ratioP2;P2;SDS_P1;SDS_P2;PMS_P1;PMS_P2;Temp;Humidity;BMP_temperature;BMP_pressure;BME280_temperature;BME280_humidity;BME280_pressure;Samples;Min_cycle;Max_cycle;Signal;HPM_P1;HPM_P2
2023/11/22 00:00:56;;;;;;;;;;;19.60;58.80;;;;;;1507276;76;747;-63
2023/11/22 00:02:58;;;;;;;;;;;19.60;58.80;;;;;;1518998;75;1578;-62
2023/11/22 00:05:00;;;;;;;;;;;19.60;58.80;;;;;;1502878;76;793;-61
2023/11/22 00:07:02;;;;;;;;;;;19.60;58.80;;;;;;1511777;76;740;-62
2023/11/22 00:09:04;;;;;;;;;;;19.60;58.80;;;;;;1517943;76;1945;-61
2023/11/22 00:11:06;;;;;;;;;;;19.60;58.80;;;;;;1511416;76;730;-61
2023/11/22 00:13:08;;;;;;;;;;;19.60;58.80;;;;;;1519548;76;1137;-62
2023/11/22 00:15:11;;;;;;;;;;;19.60;58.80;;;;;;1513718;76;675;-62
2023/11/22 00:17:13;;;;;;;;;;;19.60;58.90;;;;;;1514176;76;1577;-65
2023/11/22 00:19:17;;;;;;;;;;;19.60;58.80;;;;;;1517551;76;686;-61
2023/11/22 00:21:19;;;;;;;;;;;19.60;58.80;;;;;;1521889;76;1698;-61
2023/11/22 00:23:27;;;;;;;;;;;19.60;58.80;;;;;;1520722;76;1138;-63
2023/11/22 00:25:25;;;;;;;;;;;19.60;58.80;;;;;;1507563;76;1477;-63
2023/11/22 00:27:27;;;;;;;;;;;19.60;58.80;;;;;;1511645;76;685;-62
2023/11/22 00:29:29;;;;;;;;;;;19.50;58.80;;;;;;1521881;76;1930;-61
2023/11/22 00:31:31;;;;;;;;;;;19.50;58.80;;;;;;1511536;76;1431;-61
2023/11/22 00:33:34;;;;;;;;;;;19.60;58.90;;;;;;1516209;75;1180;-63
2023/11/22 00:35:36;;;;;;;;;;;19.60;58.80;;;;;;1519571;76;689;-62
2023/11/22 00:37:38;;;;;;;;;;;19.60;58.80;;;;;;1521448;76;680;-63
2023/11/22 00:39:40;;;;;;;;;;;19.50;58.80;;;;;;1510104;76;743;-61
2023/11/22 00:41:42;;;;;;;;;;;19.50;58.70;;;;;;1519098;76;734;-62
2023/11/22 00:43:44;;;;;;;;;;;19.50;58.80;;;;;;1511917;76;1191;-61
2023/11/22 00:45:45;;;;;;;;;;;19.60;58.80;;;;;;1513877;76;598;-61
2023/11/22 00:47:48;;;;;;;;;;;19.50;58.80;;;;;;1517178;76;821;-61
2023/11/22 00:49:50;;;;;;;;;;;19.60;58.80;;;;;;1513618;76;1931;-62
2023/11/22 00:51:52;;;;;;;;;;;19.60;58.80;;;;;;1524535;76;689;-63
2023/11/22 00:53:54;;;;;;;;;;;19.60;58.80;;;;;;1509282;76;655;-63
2023/11/22 00:55:56;;;;;;;;;;;19.50;58.90;;;;;;1519535;76;680;-62
2023/11/22 00:58:04;;;;;;;;;;;19.50;58.80;;;;;;1525596;76;1518;-64
2023/11/22 01:00:04;;;;;;;;;;;19.60;58.80;;;;;;1526863;76;1613;-62
2023/11/22 01:02:05;;;;;;;;;;;19.60;58.80;;;;;;1517726;75;1379;-64
2023/11/22 01:04:07;;;;;;;;;;;19.60;58.80;;;;;;1510825;76;697;-61
2023/11/22 01:06:09;;;;;;;;;;;19.50;58.80;;;;;;1514065;76;705;-61
2023/11/22 01:08:11;;;;;;;;;;;19.60;58.90;;;;;;1511084;76;715;-62
2023/11/22 01:10:13;;;;;;;;;;;19.60;58.80;;;;;;1512439;76;1943;-63
2023/11/22 01:12:15;;;;;;;;;;;19.50;58.80;;;;;;1512789;76;1467;-64
2023/11/22 01:14:17;;;;;;;;;;;19.50;58.80;;;;;;1511978;76;797;-61
2023/11/22 01:16:19;;;;;;;;;;;19.50;58.80;;;;;;1512128;76;781;-61
2023/11/22 01:18:20;;;;;;;;;;;19.50;58.80;;;;;;1519271;76;777;-60
2023/11/22 01:20:23;;;;;;;;;;;19.50;58.80;;;;;;1515170;76;737;-66
2023/11/22 01:22:25;;;;;;;;;;;19.50;58.80;;;;;;1523656;76;1192;-63
2023/11/22 01:24:28;;;;;;;;;;;19.60;58.80;;;;;;1513596;76;736;-64
2023/11/22 01:26:30;;;;;;;;;;;19.50;58.80;;;;;;1509903;76;1559;-61
2023/11/22 01:28:37;;;;;;;;;;;19.50;58.80;;;;;;1524246;76;763;-61
2023/11/22 01:30:35;;;;;;;;;;;19.50;58.80;;;;;;1507946;76;1943;-62
2023/11/22 01:32:37;;;;;;;;;;;19.50;58.80;;;;;;1515740;76;1207;-62
2023/11/22 01:34:39;;;;;;;;;;;19.50;58.70;;;;;;1517103;76;738;-62
2023/11/22 01:36:44;;;;;;;;;;;19.50;58.70;;;;;;1503950;76;854;-62
2023/11/22 01:38:46;;;;;;;;;;;19.50;58.70;;;;;;1517360;76;714;-61
2023/11/22 01:40:48;;;;;;;;;;;19.50;58.70;;;;;;1515454;76;1522;-61
2023/11/22 01:42:50;;;;;;;;;;;19.50;58.80;;;;;;1511470;76;1160;-61
2023/11/22 01:44:52;;;;;;;;;;;19.50;58.80;;;;;;1516501;76;703;-62
2023/11/22 01:46:55;;;;;;;;;;;19.50;58.80;;;;;;1518493;76;710;-63
2023/11/22 01:48:57;;;;;;;;;;;19.50;58.80;;;;;;1515035;76;691;-62
2023/11/22 01:50:59;;;;;;;;;;;19.50;58.80;;;;;;1509156;76;1904;-62
2023/11/22 01:53:02;;;;;;;;;;;19.50;58.80;;;;;;1513920;76;1208;-62
2023/11/22 01:55:08;;;;;;;;;;;19.50;58.80;;;;;;1518699;76;1594;-62
2023/11/22 01:57:10;;;;;;;;;;;19.50;58.70;;;;;;1507246;76;702;-61
2023/11/22 01:59:12;;;;;;;;;;;19.50;58.80;;;;;;1505704;76;762;-61
2023/11/22 02:01:14;;;;;;;;;;;19.50;58.80;;;;;;1513534;76;691;-61
2023/11/22 02:03:16;;;;;;;;;;;19.50;58.80;;;;;;1512196;76;1146;-61
2023/11/22 02:05:18;;;;;;;;;;;19.50;58.70;;;;;;1503866;76;740;-61
2023/11/22 02:07:20;;;;;;;;;;;19.50;58.80;;;;;;1517181;76;794;-61
2023/11/22 02:09:22;;;;;;;;;;;19.50;58.80;;;;;;1511908;76;1920;-61
2023/11/22 02:11:24;;;;;;;;;;;19.50;58.80;;;;;;1518594;76;704;-62
2023/11/22 02:13:26;;;;;;;;;;;19.50;58.80;;;;;;1523081;76;1214;-62
2023/11/22 02:15:28;;;;;;;;;;;19.50;58.70;;;;;;1513736;76;714;-66
2023/11/22 02:17:30;;;;;;;;;;;19.50;58.70;;;;;;1516067;76;631;-65
2023/11/22 02:19:32;;;;;;;;;;;19.50;58.70;;;;;;1511171;76;693;-64
2023/11/22 02:21:34;;;;;;;;;;;19.50;58.70;;;;;;1515387;76;699;-64
2023/11/22 02:23:36;;;;;;;;;;;19.50;58.80;;;;;;1517626;76;1323;-65
2023/11/22 02:25:38;;;;;;;;;;;19.50;58.70;;;;;;1519272;76;757;-62
2023/11/22 02:27:40;;;;;;;;;;;19.50;58.70;;;;;;1518327;76;760;-62
2023/11/22 02:29:42;;;;;;;;;;;19.50;58.70;;;;;;1520639;76;1941;-62
2023/11/22 02:31:44;;;;;;;;;;;19.50;58.70;;;;;;1512242;76;767;-63
2023/11/22 02:33:46;;;;;;;;;;;19.50;58.70;;;;;;1516904;76;1130;-61
2023/11/22 02:35:49;;;;;;;;;;;19.50;58.70;;;;;;1513018;76;770;-60
2023/11/22 02:37:51;;;;;;;;;;;19.50;58.70;;;;;;1514904;76;1520;-60
2023/11/22 02:40:10;;;;;;;;;;;19.50;58.80;;;;;;1513209;76;767;-60
2023/11/22 02:42:12;;;;;;;;;;;19.50;58.70;;;;;;1514745;76;1938;-59
2023/11/22 02:44:17;;;;;;;;;;;19.50;58.70;;;;;;1509597;76;718;-60
2023/11/22 02:46:18;;;;;;;;;;;19.50;58.70;;;;;;1525035;76;1082;-60
2023/11/22 02:48:20;;;;;;;;;;;19.50;58.70;;;;;;1508056;76;736;-60
2023/11/22 02:50:22;;;;;;;;;;;19.90;58.90;;;;;;1523101;76;1929;-61
2023/11/22 02:52:24;;;;;;;;;;;19.50;58.70;;;;;;1519105;76;1198;-61
2023/11/22 02:54:26;;;;;;;;;;;19.50;58.70;;;;;;1510303;76;772;-60
2023/11/22 02:56:27;;;;;;;;;;;19.50;58.70;;;;;;1528597;76;678;-60
2023/11/22 02:58:30;;;;;;;;;;;19.50;58.80;;;;;;1505826;76;764;-60
2023/11/22 03:00:34;;;;;;;;;;;19.50;58.70;;;;;;1514595;76;676;-60
2023/11/22 03:02:37;;;;;;;;;;;19.50;58.70;;;;;;1512506;76;1160;-60
2023/11/22 03:04:39;;;;;;;;;;;19.50;58.70;;;;;;1512065;76;1565;-60
2023/11/22 03:06:40;;;;;;;;;;;19.50;58.70;;;;;;1509438;76;774;-60
2023/11/22 03:08:42;;;;;;;;;;;19.50;58.70;;;;;;1515749;76;726;-58
2023/11/22 03:10:44;;;;;;;;;;;19.50;58.70;;;;;;1514529;76;1941;-61
2023/11/22 03:12:47;;;;;;;;;;;19.50;58.60;;;;;;1519077;76;1150;-60
2023/11/22 03:14:49;;;;;;;;;;;19.50;58.70;;;;;;1509305;76;684;-62
2023/11/22 03:16:52;;;;;;;;;;;19.50;58.60;;;;;;1509402;76;728;-62
2023/11/22 03:18:55;;;;;;;;;;;19.50;58.70;;;;;;1521608;76;1494;-61
2023/11/22 03:20:57;;;;;;;;;;;19.50;58.70;;;;;;1515065;76;702;-60
2023/11/22 03:22:59;;;;;;;;;;;19.50;58.70;;;;;;1513389;76;1169;-59
2023/11/22 03:25:03;;;;;;;;;;;19.50;58.60;;;;;;1507775;76;671;-61
2023/11/22 03:27:05;;;;;;;;;;;19.50;58.70;;;;;;1518928;76;1616;-59
2023/11/22 03:29:07;;;;;;;;;;;19.50;58.60;;;;;;1517345;76;731;-60
2023/11/22 03:31:09;;;;;;;;;;;19.50;58.60;;;;;;1520052;76;1960;-59
2023/11/22 03:33:11;;;;;;;;;;;19.50;58.60;;;;;;1522021;76;1335;-60
2023/11/22 03:35:13;;;;;;;;;;;19.50;58.60;;;;;;1519428;76;835;-59
2023/11/22 03:37:15;;;;;;;;;;;19.70;58.80;;;;;;1514288;76;712;-60
2023/11/22 03:39:17;;;;;;;;;;;19.50;58.60;;;;;;1516158;76;793;-60
2023/11/22 03:41:19;;;;;;;;;;;19.50;58.60;;;;;;1506765;76;767;-60
2023/11/22 03:43:21;;;;;;;;;;;19.50;58.60;;;;;;1520042;76;1154;-60
2023/11/22 03:45:23;;;;;;;;;;;19.50;58.60;;;;;;1514595;76;728;-59
2023/11/22 03:47:24;;;;;;;;;;;19.50;58.60;;;;;;1521290;76;1625;-60
2023/11/22 03:49:27;;;;;;;;;;;19.50;58.70;;;;;;1510618;76;807;-60
2023/11/22 03:51:28;;;;;;;;;;;19.50;58.60;;;;;;1509040;76;1913;-60
2023/11/22 03:53:30;;;;;;;;;;;19.50;58.70;;;;;;1517745;76;1199;-59
2023/11/22 03:55:32;;;;;;;;;;;19.40;58.50;;;;;;1515218;76;703;-59
2023/11/22 03:57:35;;;;;;;;;;;19.50;58.70;;;;;;1511355;76;669;-60
2023/11/22 03:59:37;;;;;;;;;;;19.50;58.60;;;;;;1515354;76;682;-60
2023/11/22 04:01:39;;;;;;;;;;;19.50;58.60;;;;;;1522224;76;1622;-60
2023/11/22 04:03:41;;;;;;;;;;;19.50;58.60;;;;;;1518470;76;1122;-60
2023/11/22 04:05:43;;;;;;;;;;;19.50;58.60;;;;;;1518125;76;788;-60
2023/11/22 04:07:45;;;;;;;;;;;19.50;58.70;;;;;;1517826;76;717;-61
2023/11/22 04:09:46;;;;;;;;;;;19.50;58.60;;;;;;1508611;76;725;-61
2023/11/22 04:11:48;;;;;;;;;;;19.50;58.60;;;;;;1510767;76;1934;-60
2023/11/22 04:13:50;;;;;;;;;;;19.50;58.70;;;;;;1510361;76;1179;-62
2023/11/22 04:15:52;;;;;;;;;;;19.50;58.60;;;;;;1513810;76;1392;-62
2023/11/22 04:17:54;;;;;;;;;;;19.50;58.60;;;;;;1508592;76;684;-61
2023/11/22 04:19:56;;;;;;;;;;;19.50;58.60;;;;;;1515538;76;686;-60
2023/11/22 04:21:59;;;;;;;;;;;19.50;58.60;;;;;;1518893;76;1127;-59
2023/11/22 04:24:01;;;;;;;;;;;19.40;58.50;;;;;;1512910;76;799;-61
2023/11/22 04:26:02;;;;;;;;;;;19.40;58.50;;;;;;1505214;76;781;-61
2023/11/22 04:28:05;;;;;;;;;;;19.50;58.60;;;;;;1511487;76;711;-59
2023/11/22 04:30:13;;;;;;;;;;;19.40;58.50;;;;;;1506448;76;1311;-60
2023/11/22 04:32:11;;;;;;;;;;;19.40;58.50;;;;;;1514852;76;1586;-60
2023/11/22 04:34:12;;;;;;;;;;;19.50;58.60;;;;;;1507852;76;872;-60
2023/11/22 04:36:14;;;;;;;;;;;19.50;58.60;;;;;;1504864;76;683;-61
2023/11/22 04:38:17;;;;;;;;;;;19.50;58.60;;;;;;1522958;76;787;-60
2023/11/22 04:40:19;;;;;;;;;;;19.50;58.60;;;;;;1505493;76;1033;-60
2023/11/22 04:42:21;;;;;;;;;;;19.50;58.60;;;;;;1511763;76;1165;-60
2023/11/22 04:44:23;;;;;;;;;;;19.40;58.50;;;;;;1519888;76;1598;-62
2023/11/22 04:46:25;;;;;;;;;;;19.50;58.60;;;;;;1516178;76;722;-62
2023/11/22 04:48:26;;;;;;;;;;;20.00;58.80;;;;;;1509283;76;728;-60
2023/11/22 04:50:28;;;;;;;;;;;19.50;58.60;;;;;;1516152;76;1952;-62
2023/11/22 04:52:30;;;;;;;;;;;19.50;58.60;;;;;;1514064;76;1185;-63
2023/11/22 04:54:33;;;;;;;;;;;19.40;58.50;;;;;;1517473;76;726;-64
2023/11/22 04:56:35;;;;;;;;;;;19.50;58.60;;;;;;1509803;76;712;-64
2023/11/22 04:58:37;;;;;;;;;;;20.00;58.80;;;;;;1516206;76;1592;-61
2023/11/22 05:00:39;;;;;;;;;;;19.50;58.60;;;;;;1522448;76;782;-61
2023/11/22 05:02:41;;;;;;;;;;;19.50;58.60;;;;;;1508738;76;1175;-61
2023/11/22 05:04:47;;;;;;;;;;;19.50;58.60;;;;;;1514279;76;682;-60
2023/11/22 05:06:47;;;;;;;;;;;19.50;58.60;;;;;;1515122;76;1357;-62
2023/11/22 05:08:49;;;;;;;;;;;19.50;58.60;;;;;;1519757;76;760;-62
2023/11/22 05:10:50;;;;;;;;;;;19.50;58.50;;;;;;1519561;76;1934;-63
2023/11/22 05:12:52;;;;;;;;;;;19.40;58.50;;;;;;1514188;76;1494;-61
2023/11/22 05:14:54;;;;;;;;;;;19.50;58.60;;;;;;1509721;76;760;-62
2023/11/22 05:16:57;;;;;;;;;;;19.40;58.50;;;;;;1513901;76;721;-63
2023/11/22 05:18:59;;;;;;;;;;;19.50;58.60;;;;;;1517834;76;726;-64
2023/11/22 05:21:00;;;;;;;;;;;19.50;58.60;;;;;;1509494;76;902;-62
2023/11/22 05:23:04;;;;;;;;;;;19.50;58.50;;;;;;1514437;76;1111;-63
2023/11/22 05:25:07;;;;;;;;;;;19.50;58.60;;;;;;1514810;76;1558;-62
2023/11/22 05:27:09;;;;;;;;;;;19.40;58.40;;;;;;1511975;76;755;-63
2023/11/22 05:29:11;;;;;;;;;;;19.50;58.50;;;;;;1511976;76;748;-64
2023/11/22 05:31:13;;;;;;;;;;;19.50;58.50;;;;;;1511045;76;1932;-62
2023/11/22 05:33:14;;;;;;;;;;;19.40;58.40;;;;;;1512112;76;1177;-61
2023/11/22 05:35:16;;;;;;;;;;;19.50;58.60;;;;;;1519945;76;747;-63
2023/11/22 05:37:19;;;;;;;;;;;19.50;58.50;;;;;;1514413;76;730;-63
2023/11/22 05:39:22;;;;;;;;;;;19.50;58.50;;;;;;1517681;76;1535;-64
2023/11/22 05:41:24;;;;;;;;;;;19.50;58.50;;;;;;1509473;77;829;-62
2023/11/22 05:43:26;;;;;;;;;;;19.40;58.40;;;;;;1501404;77;1147;-61
2023/11/22 05:45:28;;;;;;;;;;;19.40;58.40;;;;;;1526141;76;790;-64
2023/11/22 05:47:31;;;;;;;;;;;19.50;58.50;;;;;;1527808;76;744;-66
2023/11/22 05:49:32;;;;;;;;;;;19.50;58.50;;;;;;1523629;76;705;-67
2023/11/22 05:51:34;;;;;;;;;;;19.50;58.50;;;;;;1527614;76;1940;-63
2023/11/22 05:53:36;;;;;;;;;;;19.50;58.50;;;;;;1536427;76;1553;-62
2023/11/22 05:55:38;;;;;;;;;;;19.50;58.50;;;;;;1529175;76;786;-63
2023/11/22 05:57:41;;;;;;;;;;;19.50;58.50;;;;;;1529076;76;734;-63
2023/11/22 05:59:43;;;;;;;;;;;19.40;58.40;;;;;;1519301;76;757;-62
2023/11/22 06:01:45;;;;;;;;;;;19.50;58.50;;;;;;1528612;76;712;-62
2023/11/22 06:03:48;;;;;;;;;;;19.40;58.40;;;;;;1528687;76;1105;-64
2023/11/22 06:05:50;;;;;;;;;;;19.50;58.50;;;;;;1523834;76;737;-62
2023/11/22 06:07:52;;;;;;;;;;;19.50;58.50;;;;;;1527887;76;1598;-62
2023/11/22 06:09:54;;;;;;;;;;;19.40;58.40;;;;;;1527725;76;732;-63
2023/11/22 06:11:56;;;;;;;;;;;19.50;58.50;;;;;;1537311;76;1931;-64
2023/11/22 06:13:58;;;;;;;;;;;19.40;58.40;;;;;;1526754;76;748;-65
2023/11/22 06:16:00;;;;;;;;;;;19.50;58.50;;;;;;1523774;76;693;-63
2023/11/22 06:18:02;;;;;;;;;;;19.50;58.50;;;;;;1529043;76;697;-64
2023/11/22 06:20:04;;;;;;;;;;;19.50;58.50;;;;;;1535689;76;794;-62
2023/11/22 06:22:06;;;;;;;;;;;19.50;58.40;;;;;;1525197;76;1552;-62
2023/11/22 06:24:11;;;;;;;;;;;19.50;58.50;;;;;;1537450;76;666;-62
2023/11/22 06:26:12;;;;;;;;;;;19.40;58.40;;;;;;1528527;76;1656;-62
2023/11/22 06:28:14;;;;;;;;;;;19.50;58.50;;;;;;1533162;76;860;-65
2023/11/22 06:30:16;;;;;;;;;;;19.40;58.40;;;;;;1521747;76;807;-62
2023/11/22 06:32:18;;;;;;;;;;;19.40;58.40;;;;;;1526126;76;1944;-62
2023/11/22 06:34:20;;;;;;;;;;;19.50;58.50;;;;;;1527618;76;674;-62
2023/11/22 06:36:22;;;;;;;;;;;19.40;58.40;;;;;;1526167;76;1487;-62
2023/11/22 06:38:24;;;;;;;;;;;19.50;58.50;;;;;;1523890;76;736;-64
2023/11/22 06:40:26;;;;;;;;;;;19.50;58.40;;;;;;1526566;76;725;-62
2023/11/22 06:42:28;;;;;;;;;;;19.50;58.50;;;;;;1531035;76;1154;-63
2023/11/22 06:44:30;;;;;;;;;;;19.50;58.50;;;;;;1531096;76;694;-62
2023/11/22 06:46:31;;;;;;;;;;;19.50;58.50;;;;;;1523875;76;725;-64
2023/11/22 06:48:33;;;;;;;;;;;19.40;58.40;;;;;;1525601;76;706;-62
2023/11/22 06:50:35;;;;;;;;;;;19.50;58.50;;;;;;1529379;76;1607;-64
2023/11/22 06:52:38;;;;;;;;;;;19.40;58.40;;;;;;1520187;76;1945;-62
2023/11/22 06:54:40;;;;;;;;;;;19.40;58.40;;;;;;1526062;76;750;-62
2023/11/22 06:56:42;;;;;;;;;;;19.50;58.50;;;;;;1526580;76;729;-61
2023/11/22 06:58:43;;;;;;;;;;;19.40;58.40;;;;;;1524136;76;795;-62
2023/11/22 07:00:45;;;;;;;;;;;19.50;58.50;;;;;;1521646;76;747;-62
2023/11/22 07:02:47;;;;;;;;;;;19.40;58.40;;;;;;1537536;76;1137;-62
2023/11/22 07:04:49;;;;;;;;;;;19.40;58.40;;;;;;1529098;76;1572;-63
2023/11/22 07:06:51;;;;;;;;;;;19.50;58.50;;;;;;1536634;76;776;-61
2023/11/22 07:08:53;;;;;;;;;;;19.40;58.40;;;;;;1535498;76;743;-60
2023/11/22 07:10:56;;;;;;;;;;;19.40;58.40;;;;;;1526247;76;741;-61
2023/11/22 07:12:58;;;;;;;;;;;19.50;58.50;;;;;;1526498;76;1925;-65
2023/11/22 07:15:00;;;;;;;;;;;19.50;58.50;;;;;;1527835;76;717;-61
2023/11/22 07:17:02;;;;;;;;;;;19.40;58.40;;;;;;1521195;76;699;-63
2023/11/22 07:19:06;;;;;;;;;;;19.50;58.40;;;;;;1534940;76;1321;-62
2023/11/22 07:21:08;;;;;;;;;;;19.50;58.40;;;;;;1529333;76;1705;-61
2023/11/22 07:23:13;;;;;;;;;;;19.50;58.40;;;;;;1530296;76;1124;-60
2023/11/22 07:25:24;;;;;;;;;;;19.50;58.50;;;;;;1523627;76;1060;-60
2023/11/22 07:27:20;;;;;;;;;;;19.50;58.40;;;;;;1524467;76;1666;-62
2023/11/22 07:29:26;;;;;;;;;;;19.50;58.40;;;;;;1522131;76;1051;-60
2023/11/22 07:31:26;;;;;;;;;;;19.50;58.40;;;;;;1520626;76;1918;-61
2023/11/22 07:33:27;;;;;;;;;;;19.40;58.40;;;;;;1524184;76;1688;-60
2023/11/22 07:35:30;;;;;;;;;;;19.40;58.30;;;;;;1528514;76;679;-63
2023/11/22 07:37:32;;;;;;;;;;;19.40;58.40;;;;;;1523219;76;706;-66
2023/11/22 07:39:35;;;;;;;;;;;19.40;58.40;;;;;;1523737;76;690;-63
2023/11/22 07:41:37;;;;;;;;;;;19.40;58.30;;;;;;1527438;76;678;-62
2023/11/22 07:43:39;;;;;;;;;;;19.50;58.50;;;;;;1534071;76;1116;-62
2023/11/22 07:45:41;;;;;;;;;;;19.40;58.40;;;;;;1527591;76;1261;-63
2023/11/22 07:47:43;;;;;;;;;;;19.50;58.40;;;;;;1522251;76;804;-62
2023/11/22 07:49:46;;;;;;;;;;;19.50;58.40;;;;;;1526874;76;751;-62
2023/11/22 07:51:51;;;;;;;;;;;19.50;58.40;;;;;;1527104;76;1937;-65
2023/11/22 07:53:52;;;;;;;;;;;19.40;58.30;;;;;;1526297;76;1754;-61
2023/11/22 07:55:54;;;;;;;;;;;19.50;58.40;;;;;;1523646;76;727;-61
2023/11/22 07:57:56;;;;;;;;;;;19.50;58.40;;;;;;1526358;76;761;-61
2023/11/22 08:00:00;;;;;;;;;;;19.50;58.40;;;;;;1524414;76;1566;-63
2023/11/22 08:02:02;;;;;;;;;;;19.50;58.50;;;;;;1530294;76;1659;-60
2023/11/22 08:04:05;;;;;;;;;;;19.50;58.40;;;;;;1523360;76;701;-62
2023/11/22 08:06:08;;;;;;;;;;;19.50;58.40;;;;;;1523440;76;722;-61
2023/11/22 08:08:10;;;;;;;;;;;19.40;58.30;;;;;;1529918;76;724;-62
2023/11/22 08:10:18;;;;;;;;;;;19.40;58.40;;;;;;1529842;76;824;-61
2023/11/22 08:12:19;;;;;;;;;;;19.40;58.40;;;;;;1525303;76;1931;-61
2023/11/22 08:14:21;;;;;;;;;;;19.40;58.30;;;;;;1527361;76;1546;-61
2023/11/22 08:16:23;;;;;;;;;;;19.40;58.30;;;;;;1527886;76;834;-65
2023/11/22 08:18:27;;;;;;;;;;;19.50;58.40;;;;;;1525856;76;753;-61
2023/11/22 08:20:30;;;;;;;;;;;19.40;58.30;;;;;;1527577;76;671;-62
2023/11/22 08:22:35;;;;;;;;;;;19.40;58.40;;;;;;1528526;76;1172;-64
2023/11/22 08:24:36;;;;;;;;;;;19.40;58.30;;;;;;1520938;76;1632;-64
2023/11/22 08:26:38;;;;;;;;;;;19.40;58.30;;;;;;1523135;76;674;-60
2023/11/22 08:28:40;;;;;;;;;;;19.40;58.30;;;;;;1528493;76;1600;-61
2023/11/22 08:30:42;;;;;;;;;;;19.50;58.40;;;;;;1527520;76;844;-65
2023/11/22 08:32:47;;;;;;;;;;;19.40;58.30;;;;;;1530715;76;1930;-61
2023/11/22 08:34:48;;;;;;;;;;;19.40;58.30;;;;;;1524814;76;1677;-60
2023/11/22 08:36:50;;;;;;;;;;;19.40;58.30;;;;;;1526675;76;748;-63
2023/11/22 08:38:52;;;;;;;;;;;19.40;58.30;;;;;;1528697;76;723;-61
2023/11/22 08:40:55;;;;;;;;;;;19.40;58.30;;;;;;1519115;76;663;-63
2023/11/22 08:42:57;;;;;;;;;;;19.40;58.30;;;;;;1529301;76;1459;-62
2023/11/22 08:44:59;;;;;;;;;;;19.40;58.30;;;;;;1526831;76;738;-62
2023/11/22 08:47:00;;;;;;;;;;;19.40;58.30;;;;;;1528224;76;709;-64
2023/11/22 08:49:02;;;;;;;;;;;19.40;58.30;;;;;;1527357;76;720;-65
2023/11/22 08:51:04;;;;;;;;;;;19.40;58.30;;;;;;1532656;76;758;-64
2023/11/22 08:53:06;;;;;;;;;;;19.50;58.40;;;;;;1518667;76;1945;-61
2023/11/22 08:55:08;;;;;;;;;;;19.50;58.40;;;;;;1528820;76;756;-61
2023/11/22 08:57:10;;;;;;;;;;;19.40;58.30;;;;;;1525041;76;1598;-61
2023/11/22 08:59:12;;;;;;;;;;;19.50;58.40;;;;;;1525736;76;729;-63
2023/11/22 09:01:14;;;;;;;;;;;19.40;58.30;;;;;;1528779;76;851;-64
2023/11/22 09:03:17;;;;;;;;;;;19.40;58.20;;;;;;1529447;76;1173;-60
2023/11/22 09:05:19;;;;;;;;;;;19.40;58.20;;;;;;1532035;76;776;-60
2023/11/22 09:07:22;;;;;;;;;;;19.40;58.20;;;;;;1528145;76;748;-66
2023/11/22 09:09:30;;;;;;;;;;;19.40;58.30;;;;;;1524458;76;675;-61
2023/11/22 09:11:28;;;;;;;;;;;19.40;58.20;;;;;;1527852;76;1623;-62
2023/11/22 09:13:30;;;;;;;;;;;19.40;58.30;;;;;;1528358;76;1928;-62
2023/11/22 09:15:33;;;;;;;;;;;19.40;58.20;;;;;;1525440;76;703;-62
2023/11/22 09:17:36;;;;;;;;;;;19.40;58.20;;;;;;1532320;76;750;-62
2023/11/22 09:19:38;;;;;;;;;;;19.40;58.30;;;;;;1525370;76;700;-61
2023/11/22 09:21:40;;;;;;;;;;;19.40;58.20;;;;;;1517952;76;770;-61
2023/11/22 09:23:43;;;;;;;;;;;19.50;58.30;;;;;;1524990;76;1119;-61
2023/11/22 09:25:45;;;;;;;;;;;19.40;58.20;;;;;;1529089;76;1674;-61
2023/11/22 09:27:49;;;;;;;;;;;19.40;58.20;;;;;;1526497;76;802;-61
2023/11/22 09:29:51;;;;;;;;;;;19.40;58.20;;;;;;1531924;76;878;-62
2023/11/22 09:31:53;;;;;;;;;;;19.40;58.20;;;;;;1524946;76;819;-61
2023/11/22 09:33:56;;;;;;;;;;;19.40;58.20;;;;;;1529229;76;1957;-61
2023/11/22 09:35:58;;;;;;;;;;;19.40;58.20;;;;;;1524424;76;690;-63
2023/11/22 09:38:00;;;;;;;;;;;19.40;58.20;;;;;;1523474;76;690;-64
2023/11/22 09:40:08;;;;;;;;;;;19.40;58.20;;;;;;1525653;76;1634;-64
2023/11/22 09:42:06;;;;;;;;;;;19.40;58.20;;;;;;1524902;76;1604;-61
2023/11/22 09:44:10;;;;;;;;;;;19.40;58.20;;;;;;1524669;76;747;-61
2023/11/22 09:46:11;;;;;;;;;;;19.40;58.20;;;;;;1523508;76;1744;-61
2023/11/22 09:48:17;;;;;;;;;;;19.40;58.20;;;;;;1524169;76;852;-61
2023/11/22 09:50:37;;;;;;;;;;;19.40;58.20;;;;;;1523403;76;797;-61
2023/11/22 09:52:41;;;;;;;;;;;19.40;58.20;;;;;;1535279;76;1945;-62
2023/11/22 09:54:43;;;;;;;;;;;19.40;58.20;;;;;;1527707;76;1493;-64
2023/11/22 09:56:50;;;;;;;;;;;19.40;58.20;;;;;;1529515;76;791;-60
2023/11/22 09:58:48;;;;;;;;;;;19.40;58.20;;;;;;1530179;76;1431;-60
2023/11/22 10:00:52;;;;;;;;;;;19.40;58.20;;;;;;1522108;76;750;-62
2023/11/22 10:02:54;;;;;;;;;;;19.40;58.20;;;;;;1516645;76;1135;-61
2023/11/22 10:04:56;;;;;;;;;;;19.40;58.10;;;;;;1529520;76;810;-63
2023/11/22 10:07:01;;;;;;;;;;;19.40;58.10;;;;;;1524607;76;1593;-62
2023/11/22 10:09:07;;;;;;;;;;;19.40;58.20;;;;;;1521717;76;1044;-61
2023/11/22 10:11:09;;;;;;;;;;;19.40;58.20;;;;;;1522896;76;691;-62
2023/11/22 10:13:12;;;;;;;;;;;19.40;58.20;;;;;;1524490;76;1937;-61
2023/11/22 10:15:15;;;;;;;;;;;19.40;58.20;;;;;;1520399;76;740;-63
2023/11/22 10:17:19;;;;;;;;;;;19.40;58.10;;;;;;1526027;76;716;-60
2023/11/22 10:19:21;;;;;;;;;;;19.40;58.10;;;;;;1529348;76;732;-63
2023/11/22 10:21:24;;;;;;;;;;;19.40;58.10;;;;;;1528310;76;1601;-63
2023/11/22 10:23:28;;;;;;;;;;;19.40;58.10;;;;;;1525877;76;1126;-63
2023/11/22 10:25:32;;;;;;;;;;;19.40;58.10;;;;;;1521220;76;1918;-62
2023/11/22 10:27:33;;;;;;;;;;;19.40;58.20;;;;;;1532171;76;1496;-64
2023/11/22 10:29:36;;;;;;;;;;;19.40;58.20;;;;;;1524183;76;751;-61
2023/11/22 10:31:38;;;;;;;;;;;19.40;58.20;;;;;;1528583;76;728;-61
2023/11/22 10:33:46;;;;;;;;;;;19.50;58.30;;;;;;1528319;76;1968;-61
2023/11/22 10:35:48;;;;;;;;;;;19.40;58.20;;;;;;1531529;76;1549;-61
2023/11/22 10:37:50;;;;;;;;;;;19.40;58.10;;;;;;1526612;76;762;-61
2023/11/22 10:39:52;;;;;;;;;;;19.40;58.10;;;;;;1521573;76;798;-61
2023/11/22 10:41:54;;;;;;;;;;;19.40;58.10;;;;;;1531666;76;782;-60
2023/11/22 10:43:56;;;;;;;;;;;19.40;58.20;;;;;;1529689;76;706;-63
2023/11/22 10:45:58;;;;;;;;;;;19.40;58.20;;;;;;1525319;76;666;-61
2023/11/22 10:48:01;;;;;;;;;;;19.40;58.10;;;;;;1529916;76;693;-61
2023/11/22 10:50:03;;;;;;;;;;;19.40;58.10;;;;;;1525416;76;1542;-61
2023/11/22 10:52:05;;;;;;;;;;;19.40;58.10;;;;;;1524910;76;1127;-60
2023/11/22 10:54:07;;;;;;;;;;;19.40;58.10;;;;;;1524283;76;1920;-60
2023/11/22 10:56:11;;;;;;;;;;;19.40;58.20;;;;;;1528558;76;816;-63
2023/11/22 10:58:14;;;;;;;;;;;19.40;58.20;;;;;;1529296;76;1816;-62
2023/11/22 11:00:16;;;;;;;;;;;19.40;58.20;;;;;;1527583;76;709;-60
2023/11/22 11:02:18;;;;;;;;;;;19.40;58.20;;;;;;1531543;76;1165;-60
2023/11/22 11:04:21;;;;;;;;;;;19.40;58.20;;;;;;1523086;76;1352;-61
2023/11/22 11:06:27;;;;;;;;;;;19.40;58.20;;;;;;1527190;76;749;-62
2023/11/22 11:08:29;;;;;;;;;;;19.40;58.20;;;;;;1529107;76;1453;-61
2023/11/22 11:10:31;;;;;;;;;;;19.40;58.10;;;;;;1535334;76;714;-62
2023/11/22 11:12:33;;;;;;;;;;;19.40;58.20;;;;;;1531998;76;1073;-65
2023/11/22 11:14:35;;;;;;;;;;;19.40;58.20;;;;;;1524420;76;658;-62
2023/11/22 11:16:37;;;;;;;;;;;19.40;58.20;;;;;;1523549;76;1553;-62
2023/11/22 11:18:39;;;;;;;;;;;20.00;58.40;;;;;;1524780;76;802;-62
2023/11/22 11:20:51;;;;;;;;;;;19.40;58.20;;;;;;1530188;76;814;-61
2023/11/22 11:22:53;;;;;;;;;;;19.40;58.20;;;;;;1527179;76;1140;-60
2023/11/22 11:24:56;;;;;;;;;;;19.40;58.20;;;;;;1523585;76;769;-61
2023/11/22 11:26:59;;;;;;;;;;;19.40;58.20;;;;;;1523809;76;1682;-63
2023/11/22 11:29:02;;;;;;;;;;;19.40;58.10;;;;;;1502660;77;754;-62
2023/11/22 11:31:05;;;;;;;;;;;19.40;58.10;;;;;;1525438;76;1560;-63
2023/11/22 11:33:07;;;;;;;;;;;19.40;58.10;;;;;;1529658;76;1928;-61
2023/11/22 11:35:09;;;;;;;;;;;19.40;58.20;;;;;;1530592;76;756;-61
2023/11/22 11:37:13;;;;;;;;;;;19.40;58.10;;;;;;1534461;76;696;-61
2023/11/22 11:39:15;;;;;;;;;;;19.40;58.10;;;;;;1527121;76;1452;-64
2023/11/22 11:41:17;;;;;;;;;;;19.90;58.40;;;;;;1520848;76;713;-60
2023/11/22 11:43:20;;;;;;;;;;;19.40;58.10;;;;;;1537429;76;1100;-61
2023/11/22 11:45:22;;;;;;;;;;;19.40;58.10;;;;;;1524967;76;1635;-60
2023/11/22 11:47:24;;;;;;;;;;;19.40;58.10;;;;;;1533057;76;761;-61
2023/11/22 11:49:26;;;;;;;;;;;19.40;58.10;;;;;;1523075;76;662;-62
2023/11/22 11:51:28;;;;;;;;;;;19.40;58.10;;;;;;1529932;76;739;-64
2023/11/22 11:53:33;;;;;;;;;;;19.40;58.10;;;;;;1532353;76;1951;-64
2023/11/22 11:55:35;;;;;;;;;;;19.40;58.10;;;;;;1521525;76;685;-61
2023/11/22 11:57:37;;;;;;;;;;;19.40;58.10;;;;;;1526071;76;809;-60
2023/11/22 11:59:38;;;;;;;;;;;19.40;58.10;;;;;;1534098;76;1369;-61
2023/11/22 12:01:42;;;;;;;;;;;19.40;58.10;;;;;;1527931;76;734;-63
2023/11/22 12:03:44;;;;;;;;;;;19.40;58.10;;;;;;1527072;76;1131;-60
2023/11/22 12:05:45;;;;;;;;;;;19.40;58.10;;;;;;1529995;76;771;-61
2023/11/22 12:07:48;;;;;;;;;;;19.40;58.10;;;;;;1527458;76;779;-62
2023/11/22 12:09:51;;;;;;;;;;;19.40;58.10;;;;;;1523710;76;746;-61